createdAt,value
2022-11-17T00:00:29.907Z,12.07
2022-11-17T00:02:57.806Z,12.20
2022-11-17T00:05:25.597Z,13.37
2022-11-17T00:07:53.353Z,12.70
2022-11-17T00:10:21.138Z,10.90
2022-11-17T00:13:07.775Z,11.77
2022-11-17T00:15:35.667Z,11.57
2022-11-17T00:18:20.724Z,11.50
2022-11-17T00:21:06.195Z,12.97
2022-11-17T00:23:48.003Z,10.70
2022-11-17T00:26:16.895Z,11.40
2022-11-17T00:28:46.312Z,10.17
2022-11-17T00:31:33.342Z,9.13
2022-11-17T00:34:07.672Z,11.23
2022-11-17T00:36:38.445Z,12.20
2022-11-17T00:39:07.302Z,12.23
2022-11-17T00:41:35.086Z,10.67
2022-11-17T00:44:04.597Z,11.10
2022-11-17T00:46:32.826Z,13.10
2022-11-17T00:49:00.627Z,11.80
2022-11-17T00:51:28.443Z,14.17
2022-11-17T00:53:56.684Z,15.70
2022-11-17T00:56:25.454Z,12.40
2022-11-17T00:58:53.814Z,14.67
2022-11-17T01:01:23.262Z,13.63
2022-11-17T01:03:51.092Z,12.43
2022-11-17T01:06:20.877Z,16.00
2022-11-17T01:08:49.176Z,15.30
2022-11-17T01:11:19.019Z,14.83
2022-11-17T01:13:48.579Z,14.43
2022-11-17T01:16:18.315Z,12.60
2022-11-17T01:18:50.227Z,13.33
2022-11-17T01:21:21.040Z,13.53
2022-11-17T01:23:50.213Z,16.77
2022-11-17T01:26:19.980Z,13.07
2022-11-17T01:28:48.634Z,13.73
2022-11-17T01:31:18.232Z,15.63
2022-11-17T01:33:48.078Z,12.70
2022-11-17T01:36:17.390Z,16.57
2022-11-17T01:38:45.847Z,15.10
2022-11-17T01:41:16.533Z,13.30
2022-11-17T01:43:45.988Z,13.73
2022-11-17T01:46:20.551Z,17.23
2022-11-17T01:48:52.127Z,14.60
2022-11-17T01:51:20.387Z,15.70
2022-11-17T01:53:50.243Z,12.73
2022-11-17T01:56:23.860Z,17.60
2022-11-17T01:58:56.606Z,15.67
2022-11-17T02:01:24.451Z,13.00
2022-11-17T02:03:53.715Z,14.23
2022-11-17T02:06:28.568Z,16.20
2022-11-17T02:08:57.402Z,13.80
2022-11-17T02:11:26.064Z,14.07
2022-11-17T02:13:56.248Z,15.23
2022-11-17T02:16:24.166Z,12.10
2022-11-17T02:18:53.437Z,14.50
2022-11-17T02:21:57.835Z,14.97
2022-11-17T02:24:48.690Z,12.73
2022-11-17T02:27:38.767Z,15.37
2022-11-17T02:30:08.676Z,16.63
2022-11-17T02:32:46.487Z,16.73
2022-11-17T02:35:24.689Z,16.33
2022-11-17T02:38:01.734Z,16.40
2022-11-17T02:40:34.498Z,15.23
2022-11-17T02:43:26.848Z,17.07
2022-11-17T02:45:59.978Z,14.43
2022-11-17T02:48:33.217Z,14.63
2022-11-17T02:51:03.091Z,11.83
2022-11-17T02:53:32.470Z,19.70
2022-11-17T02:56:02.749Z,12.43
2022-11-17T02:58:32.005Z,16.13
2022-11-17T03:01:31.905Z,13.23
2022-11-17T03:04:18.636Z,13.80
2022-11-17T03:06:53.427Z,15.73
2022-11-17T03:09:28.855Z,12.30
2022-11-17T03:12:06.317Z,12.43
2022-11-17T03:14:45.345Z,16.27
2022-11-17T03:17:19.308Z,11.83
2022-11-17T03:19:53.616Z,17.00
2022-11-17T03:22:25.440Z,15.13
2022-11-17T03:24:58.041Z,15.33
2022-11-17T03:27:29.989Z,14.50
2022-11-17T03:30:02.772Z,15.97
2022-11-17T03:32:34.733Z,12.30
2022-11-17T03:35:08.120Z,13.77
2022-11-17T03:37:40.480Z,14.67
2022-11-17T03:40:11.650Z,12.47
2022-11-17T03:42:42.906Z,14.83
2022-11-17T03:45:17.388Z,11.60
2022-11-17T03:47:45.980Z,14.27
2022-11-17T03:50:17.480Z,13.43
2022-11-17T03:52:46.575Z,14.10
2022-11-17T03:55:15.407Z,14.50
2022-11-17T03:57:51.002Z,11.43
2022-11-17T04:00:20.933Z,12.63
2022-11-17T04:02:55.030Z,12.50
2022-11-17T04:05:23.144Z,14.53
2022-11-17T04:07:51.056Z,11.43
2022-11-17T04:10:20.659Z,15.33
2022-11-17T04:13:06.488Z,13.60
2022-11-17T04:15:53.830Z,10.83
2022-11-17T04:18:22.502Z,11.90
2022-11-17T04:20:51.855Z,12.37
2022-11-17T04:23:19.782Z,12.00
2022-11-17T04:26:07.281Z,10.87
2022-11-17T04:28:40.088Z,12.07
2022-11-17T04:31:12.264Z,12.33
2022-11-17T04:33:41.936Z,10.70
2022-11-17T04:36:11.218Z,9.93
2022-11-17T04:38:42.207Z,10.57
2022-11-17T04:41:28.904Z,10.67
2022-11-17T04:43:57.267Z,9.00
2022-11-17T04:46:28.213Z,11.73
2022-11-17T04:48:56.512Z,10.13
2022-11-17T04:51:25.685Z,9.47
2022-11-17T04:53:53.860Z,8.23
2022-11-17T04:56:22.931Z,9.17
2022-11-17T04:58:51.440Z,9.13
2022-11-17T05:01:22.263Z,9.20
2022-11-17T05:03:53.792Z,9.67
2022-11-17T05:06:23.674Z,10.10
2022-11-17T05:08:55.402Z,8.13
2022-11-17T05:11:42.548Z,9.10
2022-11-17T05:14:10.927Z,9.97
2022-11-17T05:16:56.370Z,7.90
2022-11-17T05:19:28.140Z,9.37
2022-11-17T05:21:56.592Z,8.87
2022-11-17T05:24:23.641Z,9.70
2022-11-17T05:26:51.808Z,9.80
2022-11-17T05:29:21.520Z,7.47
2022-11-17T05:31:49.754Z,9.93
2022-11-17T05:34:18.916Z,8.10
2022-11-17T05:36:48.145Z,8.43
2022-11-17T05:39:16.287Z,8.97
2022-11-17T05:41:44.179Z,10.13
2022-11-17T05:44:12.051Z,8.70
2022-11-17T05:46:39.888Z,8.00
2022-11-17T05:49:07.835Z,7.37
2022-11-17T05:51:37.744Z,10.27
2022-11-17T05:54:07.016Z,9.23
2022-11-17T05:56:39.652Z,9.20
2022-11-17T05:59:23.341Z,8.00
2022-11-17T06:01:58.975Z,9.10
2022-11-17T06:04:26.980Z,8.77
2022-11-17T06:06:58.885Z,9.30
2022-11-17T06:09:32.313Z,11.17
2022-11-17T06:12:05.529Z,10.93
2022-11-17T06:14:34.353Z,10.60
2022-11-17T06:17:07.399Z,9.07
2022-11-17T06:19:39.604Z,8.83
2022-11-17T06:22:13.090Z,7.87
2022-11-17T06:24:43.820Z,8.83
2022-11-17T06:27:12.997Z,10.70
2022-11-17T06:29:44.712Z,7.90
2022-11-17T06:32:13.893Z,9.20
2022-11-17T06:34:42.283Z,8.30
2022-11-17T06:37:11.199Z,10.07
2022-11-17T06:39:39.126Z,10.23
2022-11-17T06:42:08.364Z,10.03
2022-11-17T06:44:36.245Z,11.83
2022-11-17T06:47:04.092Z,11.30
2022-11-17T06:49:31.940Z,10.70
2022-11-17T06:51:59.807Z,11.93
2022-11-17T06:54:27.706Z,9.97
2022-11-17T06:56:55.631Z,11.30
2022-11-17T06:59:24.971Z,12.37
2022-11-17T07:01:52.862Z,9.70
2022-11-17T07:04:20.778Z,9.97
2022-11-17T07:06:48.727Z,13.03
2022-11-17T07:09:16.685Z,14.70
2022-11-17T07:11:44.639Z,11.23
2022-11-17T07:14:12.517Z,14.80
2022-11-17T07:16:43.438Z,11.20
2022-11-17T07:19:11.655Z,11.40
2022-11-17T07:21:39.591Z,12.97
2022-11-17T07:24:08.676Z,10.93
2022-11-17T07:26:36.591Z,9.77
2022-11-17T07:29:04.777Z,12.60
2022-11-17T07:31:32.773Z,10.77
2022-11-17T07:34:02.070Z,10.43
2022-11-17T07:36:30.093Z,11.30
2022-11-17T07:38:58.047Z,11.83
2022-11-17T07:41:25.950Z,10.80
2022-11-17T07:43:53.930Z,15.47
2022-11-17T07:46:21.890Z,11.20
2022-11-17T07:48:49.794Z,11.43
2022-11-17T07:51:19.026Z,13.77
2022-11-17T07:53:46.991Z,11.20
2022-11-17T07:56:15.418Z,13.67
2022-11-17T07:58:43.438Z,9.40
2022-11-17T08:01:15.782Z,12.53
2022-11-17T08:03:44.408Z,10.07
2022-11-17T08:06:12.594Z,9.03
2022-11-17T08:08:42.016Z,11.33
2022-11-17T08:11:12.498Z,8.97
2022-11-17T08:13:41.379Z,9.53
2022-11-17T08:16:10.536Z,9.57
2022-11-17T08:18:38.741Z,10.23
2022-11-17T08:21:08.482Z,9.23
2022-11-17T08:23:37.411Z,11.30
2022-11-17T08:26:08.373Z,9.70
2022-11-17T08:28:36.607Z,8.40
2022-11-17T08:31:06.268Z,9.73
2022-11-17T08:33:34.587Z,8.70
2022-11-17T08:36:04.723Z,9.80
2022-11-17T08:38:32.762Z,9.77
2022-11-17T08:41:04.046Z,9.07
2022-11-17T08:43:33.867Z,8.77
2022-11-17T08:46:02.402Z,9.57
2022-11-17T08:48:31.687Z,8.37
2022-11-17T08:51:00.251Z,7.30
2022-11-17T08:53:28.208Z,8.47
2022-11-17T08:55:56.127Z,8.77
2022-11-17T08:58:24.085Z,7.23
2022-11-17T09:00:53.593Z,9.53
2022-11-17T09:03:21.559Z,6.43
2022-11-17T09:05:49.517Z,7.20
2022-11-17T09:11:06.750Z,6.83
2022-11-17T09:13:36.400Z,7.87
2022-11-17T09:16:07.249Z,6.30
2022-11-17T09:18:36.928Z,7.33
2022-11-17T09:21:07.149Z,6.77
2022-11-17T09:23:35.717Z,7.83
2022-11-17T09:26:07.166Z,6.03
2022-11-17T09:28:35.662Z,7.37
2022-11-17T09:31:09.159Z,6.60
2022-11-17T09:33:37.869Z,6.00
2022-11-17T09:36:07.239Z,7.07
2022-11-17T09:38:35.514Z,5.43
2022-11-17T09:41:13.305Z,6.40
2022-11-17T09:43:46.414Z,6.27
2022-11-17T09:46:21.125Z,5.07
2022-11-17T09:48:53.879Z,6.23
2022-11-17T09:51:26.163Z,6.10
2022-11-17T09:53:57.623Z,4.77
2022-11-17T09:56:28.241Z,4.83
2022-11-17T09:59:00.270Z,6.00
2022-11-17T10:01:30.333Z,6.20
2022-11-17T10:04:00.072Z,4.50
2022-11-17T10:06:30.210Z,5.83
2022-11-17T10:09:02.782Z,6.70
2022-11-17T10:11:33.327Z,5.50
2022-11-17T10:14:05.031Z,4.90
2022-11-17T10:16:34.557Z,5.20
2022-11-17T10:19:03.762Z,5.93
2022-11-17T10:21:32.315Z,11.17
2022-11-17T10:24:00.749Z,5.57
2022-11-17T10:26:28.734Z,4.90
2022-11-17T10:29:09.061Z,4.73
2022-11-17T10:31:46.828Z,5.43
2022-11-17T10:34:38.905Z,8.43
2022-11-17T10:37:27.851Z,7.87
2022-11-17T10:40:22.002Z,4.27
2022-11-17T10:43:00.722Z,3.53
2022-11-17T10:45:28.890Z,4.80
2022-11-17T10:48:11.606Z,3.50
2022-11-17T10:50:51.493Z,3.47
2022-11-17T10:53:46.360Z,3.53
2022-11-17T10:56:18.424Z,3.40
2022-11-17T10:58:59.274Z,3.97
2022-11-17T11:01:32.343Z,3.33
2022-11-17T11:04:01.835Z,4.17
2022-11-17T11:06:31.699Z,5.10
2022-11-17T11:09:02.009Z,4.63
2022-11-17T11:11:37.887Z,5.10
2022-11-17T11:14:14.435Z,3.87
2022-11-17T11:16:47.821Z,5.47
2022-11-17T11:19:21.423Z,4.60
2022-11-17T11:22:03.397Z,4.10
2022-11-17T11:24:42.977Z,4.33
2022-11-17T11:27:28.453Z,3.53
2022-11-17T11:30:03.111Z,5.40
2022-11-17T11:32:41.437Z,2.93
2022-11-17T11:35:49.798Z,4.10
2022-11-17T11:38:36.748Z,3.33
2022-11-17T11:41:19.631Z,3.20
2022-11-17T11:44:01.624Z,4.30
2022-11-17T11:46:40.578Z,3.20
2022-11-17T11:49:16.574Z,3.70
2022-11-17T11:51:49.806Z,3.73
2022-11-17T11:54:28.553Z,3.00
2022-11-17T11:56:56.609Z,2.60
2022-11-17T11:59:38.827Z,3.67
2022-11-17T12:02:24.135Z,4.47
2022-11-17T12:05:06.052Z,4.43
2022-11-17T12:07:44.750Z,5.67
2022-11-17T12:10:19.513Z,8.73
2022-11-17T12:12:48.037Z,7.30
2022-11-17T12:15:33.718Z,2.27
2022-11-17T12:18:04.762Z,2.80
2022-11-17T12:20:52.726Z,3.70
2022-11-17T12:23:39.081Z,1.90
2022-11-17T12:26:07.885Z,2.10
2022-11-17T12:28:38.140Z,1.30
2022-11-17T12:31:10.195Z,1.97
2022-11-17T12:34:11.314Z,2.17
2022-11-17T12:36:39.633Z,3.43
2022-11-17T12:39:53.225Z,1.63
2022-11-17T12:42:21.170Z,2.73
2022-11-17T12:44:57.962Z,2.80
2022-11-17T12:47:27.597Z,2.80
2022-11-17T12:50:23.457Z,2.67
2022-11-17T12:53:15.777Z,2.13
2022-11-17T12:55:59.173Z,2.80
2022-11-17T12:58:34.853Z,2.23
2022-11-17T13:01:10.865Z,3.77
2022-11-17T13:03:44.941Z,1.73
2022-11-17T13:09:06.053Z,3.17
2022-11-17T13:11:36.168Z,1.80
2022-11-17T13:14:12.123Z,2.10
2022-11-17T13:16:46.061Z,1.87
2022-11-17T13:19:39.216Z,2.17
2022-11-17T13:22:15.097Z,3.00
2022-11-17T13:24:45.114Z,3.03
2022-11-17T13:27:23.236Z,1.57
2022-11-17T13:29:51.557Z,0.87
2022-11-17T13:32:21.425Z,3.30
2022-11-17T13:34:52.199Z,3.73
2022-11-17T13:37:22.704Z,2.43
2022-11-17T13:39:58.753Z,3.23
2022-11-17T13:42:30.979Z,2.27
2022-11-17T13:45:01.605Z,1.20
2022-11-17T13:47:43.361Z,1.37
2022-11-17T13:50:34.489Z,0.90
2022-11-17T13:53:05.798Z,2.10
2022-11-17T13:55:35.258Z,0.70
2022-11-17T13:58:07.472Z,0.60
2022-11-17T14:00:35.711Z,1.07
2022-11-17T14:03:05.889Z,0.70
2022-11-17T14:05:34.418Z,0.60
2022-11-17T14:08:13.987Z,1.73
2022-11-17T14:10:42.597Z,0.80
2022-11-17T14:13:24.349Z,1.17
2022-11-17T14:15:58.296Z,1.10
2022-11-17T14:18:31.633Z,0.63
2022-11-17T14:21:15.129Z,0.50
2022-11-17T14:23:44.143Z,0.73
2022-11-17T14:26:19.413Z,0.97
2022-11-17T14:28:49.483Z,0.67
2022-11-17T14:31:17.781Z,2.67
2022-11-17T14:33:45.762Z,4.40
2022-11-17T14:36:15.921Z,3.40
2022-11-17T14:38:44.669Z,3.40
2022-11-17T14:41:12.577Z,3.90
2022-11-17T14:43:40.445Z,3.93
2022-11-17T14:46:17.329Z,2.80
2022-11-17T14:48:45.254Z,2.27
2022-11-17T14:51:15.293Z,3.90
2022-11-17T14:53:44.432Z,5.20
2022-11-17T14:56:15.966Z,2.40
2022-11-17T14:58:43.842Z,2.30
2022-11-17T15:01:17.274Z,2.67
2022-11-17T15:03:45.776Z,2.63
2022-11-17T15:06:19.359Z,2.73
2022-11-17T15:08:48.287Z,3.23
2022-11-17T15:11:18.693Z,2.10
2022-11-17T15:13:46.624Z,2.53
2022-11-17T15:16:15.880Z,1.90
2022-11-17T15:18:46.066Z,1.80
2022-11-17T15:21:14.785Z,1.33
2022-11-17T15:23:43.821Z,1.03
2022-11-17T15:26:15.074Z,2.40
2022-11-17T15:28:43.741Z,1.10
2022-11-17T15:31:13.462Z,1.30
2022-11-17T15:33:43.930Z,1.03
2022-11-17T15:36:14.862Z,0.90
2022-11-17T15:38:42.816Z,0.73
2022-11-17T15:41:12.268Z,1.57
2022-11-17T15:43:41.938Z,1.37
2022-11-17T15:46:11.088Z,1.03
2022-11-17T15:48:42.286Z,2.00
2022-11-17T15:51:13.301Z,1.27
2022-11-17T15:53:42.257Z,1.60
2022-11-17T15:56:12.261Z,2.60
2022-11-17T15:58:41.527Z,2.13
2022-11-17T16:01:14.532Z,1.70
2022-11-17T16:03:44.045Z,2.70
2022-11-17T16:06:14.089Z,1.40
2022-11-17T16:08:42.459Z,2.00
2022-11-17T16:11:11.842Z,2.10
2022-11-17T16:13:39.740Z,1.17
2022-11-17T16:16:09.021Z,1.80
2022-11-17T16:18:38.457Z,2.97
2022-11-17T16:21:07.868Z,3.00
2022-11-17T16:23:41.301Z,4.90
2022-11-17T16:26:10.400Z,2.60
2022-11-17T16:28:38.877Z,4.10
2022-11-17T16:31:14.684Z,2.77
2022-11-17T16:33:47.657Z,3.23
2022-11-17T16:36:15.592Z,2.43
2022-11-17T16:38:59.682Z,3.20
2022-11-17T16:41:30.444Z,2.60
2022-11-17T16:43:58.497Z,2.23
2022-11-17T16:46:28.664Z,6.67
2022-11-17T16:48:57.086Z,5.57
2022-11-17T16:51:25.314Z,8.23
2022-11-17T16:53:58.782Z,9.30
2022-11-17T16:56:26.836Z,8.50
2022-11-17T16:58:55.086Z,5.80
2022-11-17T17:01:25.007Z,4.27
2022-11-17T17:03:56.428Z,3.87
2022-11-17T17:06:24.582Z,4.87
2022-11-17T17:08:55.249Z,4.83
2022-11-17T17:11:25.263Z,3.70
2022-11-17T17:13:53.117Z,5.00
2022-11-17T17:16:21.364Z,4.00
2022-11-17T17:18:54.819Z,2.90
2022-11-17T17:21:23.250Z,2.90
2022-11-17T17:23:51.272Z,2.70
2022-11-17T17:26:22.209Z,3.10
2022-11-17T17:28:55.009Z,5.27
2022-11-17T17:31:24.124Z,3.70
2022-11-17T17:33:52.816Z,6.83
2022-11-17T17:36:22.502Z,5.00
2022-11-17T17:38:55.463Z,5.30
2022-11-17T17:41:25.860Z,5.07
2022-11-17T17:44:00.116Z,6.63
2022-11-17T17:46:30.561Z,4.47
2022-11-17T17:48:58.987Z,5.30
2022-11-17T17:51:28.325Z,6.73
2022-11-17T17:53:58.099Z,6.00
2022-11-17T17:56:26.255Z,4.00
2022-11-17T17:58:56.286Z,6.80
2022-11-17T18:01:27.638Z,3.87
2022-11-17T18:04:01.059Z,4.17
2022-11-17T18:06:29.465Z,4.67
2022-11-17T18:08:58.625Z,5.40
2022-11-17T18:11:26.628Z,6.23
2022-11-17T18:13:55.015Z,5.07
2022-11-17T18:16:26.639Z,6.13
2022-11-17T18:18:57.964Z,6.07
2022-11-17T18:21:27.013Z,4.80
2022-11-17T18:23:55.334Z,7.77
2022-11-17T18:26:24.874Z,3.93
2022-11-17T18:28:54.021Z,3.87
2022-11-17T18:31:24.442Z,4.17
2022-11-17T18:33:54.717Z,3.83
2022-11-17T18:36:23.471Z,2.80
2022-11-17T18:38:52.614Z,2.83
2022-11-17T18:41:22.108Z,3.15
2022-11-17T18:43:50.435Z,4.17
2022-11-17T18:46:19.917Z,3.90
2022-11-17T18:48:49.694Z,3.03
2022-11-17T18:51:21.110Z,3.43
2022-11-17T18:53:49.637Z,2.63
2022-11-17T18:56:19.569Z,2.40
2022-11-17T18:58:48.422Z,3.30
2022-11-17T19:01:18.197Z,3.37
2022-11-17T19:03:47.940Z,4.27
2022-11-17T19:06:18.995Z,3.70
2022-11-17T19:08:48.193Z,3.87
2022-11-17T19:11:17.019Z,4.50
2022-11-17T19:13:45.706Z,6.13
2022-11-17T19:16:15.760Z,4.77
2022-11-17T19:18:44.749Z,4.07
2022-11-17T19:21:14.655Z,5.57
2022-11-17T19:23:50.804Z,3.03
2022-11-17T19:26:21.641Z,5.43
2022-11-17T19:28:49.765Z,3.33
2022-11-17T19:31:19.744Z,3.60
2022-11-17T19:33:48.735Z,3.30
2022-11-17T19:36:18.486Z,3.30
2022-11-17T19:38:49.729Z,3.30
2022-11-17T19:41:19.910Z,4.87
2022-11-17T19:43:48.071Z,4.10
2022-11-17T19:46:17.888Z,4.17
2022-11-17T19:48:45.894Z,4.90
2022-11-17T19:51:16.538Z,4.47
2022-11-17T19:53:44.479Z,4.53
2022-11-17T19:56:14.073Z,3.60
2022-11-17T19:58:42.165Z,3.23
2022-11-17T20:01:12.339Z,3.03
2022-11-17T20:03:41.611Z,2.87
2022-11-17T20:06:10.434Z,3.93
2022-11-17T20:08:38.914Z,3.97
2022-11-17T20:11:09.148Z,4.80
2022-11-17T20:13:39.136Z,4.03
2022-11-17T20:16:11.991Z,4.07
2022-11-17T20:18:40.475Z,4.50
2022-11-17T20:21:09.674Z,6.53
2022-11-17T20:23:38.857Z,5.53
2022-11-17T20:26:07.884Z,6.73
2022-11-17T20:28:38.104Z,4.27
2022-11-17T20:31:10.276Z,7.23
2022-11-17T20:33:38.800Z,5.33
2022-11-17T20:36:07.653Z,5.40
2022-11-17T20:38:35.864Z,6.17
2022-11-17T20:41:04.941Z,6.03
2022-11-17T20:43:33.438Z,6.93
2022-11-17T20:46:03.480Z,5.73
2022-11-17T20:48:35.609Z,6.67
2022-11-17T20:51:05.603Z,8.40
2022-11-17T20:53:34.313Z,7.00
2022-11-17T20:56:05.899Z,4.10
2022-11-17T20:58:34.791Z,6.27
2022-11-17T21:01:09.564Z,8.03
2022-11-17T21:03:37.797Z,6.57
2022-11-17T21:06:06.572Z,9.00
2022-11-17T21:08:36.381Z,5.43
2022-11-17T21:11:06.497Z,7.43
2022-11-17T21:13:35.787Z,3.67
2022-11-17T21:16:10.469Z,4.33
2022-11-17T21:18:40.113Z,4.43
2022-11-17T21:21:09.448Z,2.80
2022-11-17T21:23:38.006Z,3.40
2022-11-17T21:26:07.327Z,3.50
2022-11-17T21:28:35.357Z,2.97
2022-11-17T21:31:06.421Z,3.70
2022-11-17T21:33:35.688Z,3.10
2022-11-17T21:36:04.398Z,2.83
2022-11-17T21:38:32.405Z,3.63
2022-11-17T21:41:03.672Z,3.77
2022-11-17T21:43:31.983Z,4.07
2022-11-17T21:46:02.519Z,3.80
2022-11-17T21:48:30.487Z,4.10
2022-11-17T21:51:00.003Z,2.53
2022-11-17T21:53:28.129Z,4.43
2022-11-17T21:56:01.574Z,3.70
2022-11-17T21:58:29.614Z,3.33
2022-11-17T22:00:57.623Z,4.63
2022-11-17T22:03:25.966Z,2.80
2022-11-17T22:05:58.003Z,3.93
2022-11-17T22:08:30.309Z,5.17
2022-11-17T22:10:58.197Z,3.13
2022-11-17T22:13:26.085Z,5.07
2022-11-17T22:15:53.965Z,3.10
2022-11-17T22:18:22.161Z,3.93
2022-11-17T22:20:52.136Z,3.70
2022-11-17T22:23:20.085Z,2.93
2022-11-17T22:25:55.714Z,3.30
2022-11-17T22:28:24.524Z,4.43
2022-11-17T22:30:53.490Z,3.37
2022-11-17T22:33:22.641Z,3.70
2022-11-17T22:35:50.686Z,2.57
2022-11-17T22:38:18.806Z,5.27
2022-11-17T22:40:46.706Z,4.20
2022-11-17T22:43:15.964Z,2.50
2022-11-17T22:45:43.987Z,2.73
2022-11-17T22:48:11.942Z,3.30
2022-11-17T22:50:39.898Z,3.77
2022-11-17T22:53:07.837Z,3.30
2022-11-17T22:55:36.137Z,3.80
2022-11-17T22:58:04.104Z,3.07
2022-11-17T23:00:33.444Z,4.17
2022-11-17T23:03:01.357Z,3.50
2022-11-17T23:05:29.274Z,4.80
2022-11-17T23:07:57.177Z,2.73
2022-11-17T23:10:25.072Z,3.10
2022-11-17T23:12:53.318Z,2.80
2022-11-17T23:15:21.693Z,2.20
2022-11-17T23:17:50.962Z,2.30
2022-11-17T23:20:18.919Z,2.27
2022-11-17T23:22:47.014Z,3.80
2022-11-17T23:25:14.894Z,4.43
2022-11-17T23:27:42.829Z,1.80
2022-11-17T23:30:11.860Z,2.00
2022-11-17T23:32:39.800Z,3.33
2022-11-17T23:35:10.145Z,1.33
2022-11-17T23:37:38.114Z,2.30
2022-11-17T23:40:07.140Z,1.80
2022-11-17T23:42:40.145Z,3.90
2022-11-17T23:45:11.889Z,2.77
2022-11-17T23:47:40.215Z,3.00
2022-11-17T23:50:10.441Z,2.87
2022-11-17T23:52:38.338Z,2.00
2022-11-17T23:55:06.983Z,2.23
2022-11-17T23:57:34.894Z,2.50
